Airport ICAO


11:57 UTC

26°C

Clear skies


An affordable passengers' Moving Map for your aircraft. Made for the iPad and the iPhone
More information here

EGKB Biggin Hill


London UNITED KINGDOM   VFR CAVOK


METAR EGKB 191150Z VRB06KT CAVOK 26/06 Q1024 0h07min

TAF EGKB 191048Z 1912/1921 15005KT CAVOK 1h09min





NOTAMS

OPEN